sensor_id;sensor_type;location;lat;lon;timestamp;pressure;altitude;pressure_sealevel;temperature
19568;BMP280;9930;49.240;8.548;2023-03-31T00:00:37;99820.91;;;16.74
19568;BMP280;9930;49.240;8.548;2023-03-31T00:03:03;99806.34;;;16.74
19568;BMP280;9930;49.240;8.548;2023-03-31T00:05:36;99814.94;;;16.82
19568;BMP280;9930;49.240;8.548;2023-03-31T00:08:02;99797.75;;;16.78
19568;BMP280;9930;49.240;8.548;2023-03-31T00:10:33;99804.66;;;16.86
19568;BMP280;9930;49.240;8.548;2023-03-31T00:13:00;99795.19;;;16.84
19568;BMP280;9930;49.240;8.548;2023-03-31T00:15:28;99784.88;;;16.80
19568;BMP280;9930;49.240;8.548;2023-03-31T00:17:56;99777.16;;;16.78
19568;BMP280;9930;49.240;8.548;2023-03-31T00:20:24;99774.59;;;16.81
19568;BMP280;9930;49.240;8.548;2023-03-31T00:22:55;99769.44;;;16.77
19568;BMP280;9930;49.240;8.548;2023-03-31T00:25:22;99779.75;;;16.81
19568;BMP280;9930;49.240;8.548;2023-03-31T00:27:47;99761.69;;;16.75
19568;BMP280;9930;49.240;8.548;2023-03-31T00:30:15;99768.59;;;16.82
19568;BMP280;9930;49.240;8.548;2023-03-31T00:32:41;99754.84;;;16.74
19568;BMP280;9930;49.240;8.548;2023-03-31T00:35:09;99781.44;;;16.79
19568;BMP280;9930;49.240;8.548;2023-03-31T00:37:36;99780.56;;;16.71
19568;BMP280;9930;49.240;8.548;2023-03-31T00:40:05;99786.59;;;16.76
19568;BMP280;9930;49.240;8.548;2023-03-31T00:42:42;99782.28;;;16.74
19568;BMP280;9930;49.240;8.548;2023-03-31T00:48:06;99747.09;;;16.68
19568;BMP280;9930;49.240;8.548;2023-03-31T00:50:48;99727.31;;;16.63
19568;BMP280;9930;49.240;8.548;2023-03-31T00:53:17;99722.16;;;16.63
19568;BMP280;9930;49.240;8.548;2023-03-31T00:55:52;99733.38;;;16.68
19568;BMP280;9930;49.240;8.548;2023-03-31T00:58:20;99723.91;;;16.65
19568;BMP280;9930;49.240;8.548;2023-03-31T01:00:58;99701.59;;;16.66
19568;BMP280;9930;49.240;8.548;2023-03-31T01:03:30;99712.75;;;16.68
19568;BMP280;9930;49.240;8.548;2023-03-31T01:06:03;99707.63;;;16.74
19568;BMP280;9930;49.240;8.548;2023-03-31T01:08:31;99693.88;;;16.69
19568;BMP280;9930;49.240;8.548;2023-03-31T01:11:12;99698.19;;;16.71
19568;BMP280;9930;49.240;8.548;2023-03-31T01:13:42;99706.75;;;16.76
19568;BMP280;9930;49.240;8.548;2023-03-31T01:16:08;99705.06;;;16.75
19568;BMP280;9930;49.240;8.548;2023-03-31T01:18:36;99729.94;;;16.76
19568;BMP280;9930;49.240;8.548;2023-03-31T01:36:10;99685.31;;;16.67
19568;BMP280;9930;49.240;8.548;2023-03-31T01:41:44;99687.88;;;16.67
19568;BMP280;9930;49.240;8.548;2023-03-31T01:47:17;99671.53;;;16.62
19568;BMP280;9930;49.240;8.548;2023-03-31T01:51:11;99666.41;;;16.65
19568;BMP280;9930;49.240;8.548;2023-03-31T01:53:21;99661.28;;;16.65
19568;BMP280;9930;49.240;8.548;2023-03-31T01:59:16;99637.19;;;16.58
19568;BMP280;9930;49.240;8.548;2023-03-31T02:01:58;99651.78;;;16.61
19568;BMP280;9930;49.240;8.548;2023-03-31T02:05:11;99653.50;;;16.63
19568;BMP280;9930;49.240;8.548;2023-03-31T02:07:47;99644.94;;;16.64
19568;BMP280;9930;49.240;8.548;2023-03-31T02:10:16;99628.63;;;16.58
19568;BMP280;9930;49.240;8.548;2023-03-31T02:12:44;99644.97;;;16.67
19568;BMP280;9930;49.240;8.548;2023-03-31T02:15:17;99642.38;;;16.69
19568;BMP280;9930;49.240;8.548;2023-03-31T02:17:54;99626.09;;;16.68
19568;BMP280;9930;49.240;8.548;2023-03-31T02:20:21;99619.19;;;16.63
19568;BMP280;9930;49.240;8.548;2023-03-31T02:22:54;99611.50;;;16.69
19568;BMP280;9930;49.240;8.548;2023-03-31T02:25:34;99607.19;;;16.69
19568;BMP280;9930;49.240;8.548;2023-03-31T02:28:12;99590.91;;;16.70
19568;BMP280;9930;49.240;8.548;2023-03-31T02:30:53;99576.31;;;16.71
19568;BMP280;9930;49.240;8.548;2023-03-31T02:33:22;99571.16;;;16.71
19568;BMP280;9930;49.240;8.548;2023-03-31T02:35:51;99560.84;;;16.63
19568;BMP280;9930;49.240;8.548;2023-03-31T02:38:17;99556.53;;;16.64
19568;BMP280;9930;49.240;8.548;2023-03-31T02:40:42;99557.44;;;16.70
19568;BMP280;9930;49.240;8.548;2023-03-31T02:43:08;99555.72;;;16.71
19568;BMP280;9930;49.240;8.548;2023-03-31T02:45:48;99547.97;;;16.72
19568;BMP280;9930;49.240;8.548;2023-03-31T02:48:20;99540.25;;;16.71
19568;BMP280;9930;49.240;8.548;2023-03-31T02:51:23;99519.66;;;16.57
19568;BMP280;9930;49.240;8.548;2023-03-31T03:00:30;99502.47;;;16.64
19568;BMP280;9930;49.240;8.548;2023-03-31T03:11:50;99463.88;;;16.64
19568;BMP280;9930;49.240;8.548;2023-03-31T03:14:49;99470.72;;;16.60
19568;BMP280;9930;49.240;8.548;2023-03-31T03:17:42;99457.00;;;16.57
19568;BMP280;9930;49.240;8.548;2023-03-31T03:20:18;99440.72;;;16.55
19568;BMP280;9930;49.240;8.548;2023-03-31T03:22:47;99440.69;;;16.62
19568;BMP280;9930;49.240;8.548;2023-03-31T03:25:15;99429.56;;;16.60
19568;BMP280;9930;49.240;8.548;2023-03-31T03:27:45;99419.25;;;16.56
19568;BMP280;9930;49.240;8.548;2023-03-31T03:30:14;99429.56;;;16.60
19568;BMP280;9930;49.240;8.548;2023-03-31T03:32:40;99442.41;;;16.63
19568;BMP280;9930;49.240;8.548;2023-03-31T03:35:07;99420.13;;;16.56
19568;BMP280;9930;49.240;8.548;2023-03-31T03:37:35;99412.38;;;16.61
19568;BMP280;9930;49.240;8.548;2023-03-31T03:40:01;99404.66;;;16.61
19568;BMP280;9930;49.240;8.548;2023-03-31T03:42:29;99393.53;;;16.57
19568;BMP280;9930;49.240;8.548;2023-03-31T03:44:55;99365.22;;;16.56
19568;BMP280;9930;49.240;8.548;2023-03-31T03:47:21;99324.94;;;16.41
19568;BMP280;9930;49.240;8.548;2023-03-31T03:49:49;99321.50;;;16.42
19568;BMP280;9930;49.240;8.548;2023-03-31T03:52:15;99338.66;;;16.47
19568;BMP280;9930;49.240;8.548;2023-03-31T03:54:46;99311.25;;;16.36
19568;BMP280;9930;49.240;8.548;2023-03-31T03:57:14;99339.53;;;16.42
19568;BMP280;9930;49.240;8.548;2023-03-31T03:59:42;99352.41;;;16.40
19568;BMP280;9930;49.240;8.548;2023-03-31T04:02:07;99354.97;;;16.33
19568;BMP280;9930;49.240;8.548;2023-03-31T04:04:33;99355.84;;;16.30
19568;BMP280;9930;49.240;8.548;2023-03-31T04:07:00;99358.41;;;16.36
19568;BMP280;9930;49.240;8.548;2023-03-31T04:09:30;99351.56;;;16.29
19568;BMP280;9930;49.240;8.548;2023-03-31T04:11:56;99353.28;;;16.29
19568;BMP280;9930;49.240;8.548;2023-03-31T04:14:22;99370.41;;;16.34
19568;BMP280;9930;49.240;8.548;2023-03-31T04:16:50;99361.84;;;16.34
19568;BMP280;9930;49.240;8.548;2023-03-31T04:19:18;99353.28;;;16.35
19568;BMP280;9930;49.240;8.548;2023-03-31T04:21:52;99331.84;;;16.27
19568;BMP280;9930;49.240;8.548;2023-03-31T04:24:30;99318.97;;;16.28
19568;BMP280;9930;49.240;8.548;2023-03-31T04:26:59;99331.81;;;16.34
19568;BMP280;9930;49.240;8.548;2023-03-31T04:29:28;99312.13;;;16.30
19568;BMP280;9930;49.240;8.548;2023-03-31T04:32:01;99323.25;;;16.35
19568;BMP280;9930;49.240;8.548;2023-03-31T04:34:27;99308.66;;;16.36
19568;BMP280;9930;49.240;8.548;2023-03-31T04:37:01;99296.69;;;16.27
19568;BMP280;9930;49.240;8.548;2023-03-31T04:39:31;99297.53;;;16.34
19568;BMP280;9930;49.240;8.548;2023-03-31T04:41:59;99290.66;;;16.33
19568;BMP280;9930;49.240;8.548;2023-03-31T04:44:25;99300.09;;;16.32
19568;BMP280;9930;49.240;8.548;2023-03-31T04:46:52;99292.41;;;16.20
19568;BMP280;9930;49.240;8.548;2023-03-31T04:49:21;99309.53;;;16.32
19568;BMP280;9930;49.240;8.548;2023-03-31T04:51:49;99300.97;;;16.24
19568;BMP280;9930;49.240;8.548;2023-03-31T04:54:19;99308.69;;;16.28
19568;BMP280;9930;49.240;8.548;2023-03-31T04:56:45;99309.53;;;16.29
19568;BMP280;9930;49.240;8.548;2023-03-31T04:59:11;99310.41;;;16.28
19568;BMP280;9930;49.240;8.548;2023-03-31T05:01:37;99317.28;;;16.27
19568;BMP280;9930;49.240;8.548;2023-03-31T05:04:09;99289.88;;;16.14
19568;BMP280;9930;49.240;8.548;2023-03-31T05:06:37;99310.41;;;16.25
19568;BMP280;9930;49.240;8.548;2023-03-31T05:09:02;99318.13;;;16.23
19568;BMP280;9930;49.240;8.548;2023-03-31T05:11:30;99314.72;;;16.16
19568;BMP280;9930;49.240;8.548;2023-03-31T05:13:58;99321.59;;;16.14
19568;BMP280;9930;49.240;8.548;2023-03-31T05:16:23;99322.44;;;16.19
19568;BMP280;9930;49.240;8.548;2023-03-31T05:18:49;99313.00;;;16.17
19568;BMP280;9930;49.240;8.548;2023-03-31T05:21:19;99298.44;;;16.10
19568;BMP280;9930;49.240;8.548;2023-03-31T05:23:46;99296.75;;;16.04
19568;BMP280;9930;49.240;8.548;2023-03-31T05:26:13;99288.19;;;16.02
19568;BMP280;9930;49.240;8.548;2023-03-31T05:28:39;99274.44;;;16.09
19568;BMP280;9930;49.240;8.548;2023-03-31T05:31:09;99272.75;;;16.07
19568;BMP280;9930;49.240;8.548;2023-03-31T05:33:37;99267.59;;;16.04
19568;BMP280;9930;49.240;8.548;2023-03-31T05:36:09;99237.66;;;15.91
19568;BMP280;9930;49.240;8.548;2023-03-31T05:38:35;99244.47;;;15.98
19568;BMP280;9930;49.240;8.548;2023-03-31T05:41:02;99235.06;;;15.94
19568;BMP280;9930;49.240;8.548;2023-03-31T05:43:29;99235.91;;;15.93
19568;BMP280;9930;49.240;8.548;2023-03-31T05:45:54;99229.94;;;15.91
19568;BMP280;9930;49.240;8.548;2023-03-31T05:48:20;99223.06;;;15.90
19568;BMP280;9930;49.240;8.548;2023-03-31T05:50:46;99214.50;;;15.87
19568;BMP280;9930;49.240;8.548;2023-03-31T05:53:12;99204.22;;;15.89
19568;BMP280;9930;49.240;8.548;2023-03-31T05:55:38;99199.09;;;15.87
19568;BMP280;9930;49.240;8.548;2023-03-31T05:58:05;99178.53;;;15.80
19568;BMP280;9930;49.240;8.548;2023-03-31T06:00:35;99207.66;;;15.88
19568;BMP280;9930;49.240;8.548;2023-03-31T06:03:02;99188.84;;;15.78
19568;BMP280;9930;49.240;8.548;2023-03-31T06:05:30;99202.53;;;15.85
19568;BMP280;9930;49.240;8.548;2023-03-31T06:07:57;99171.69;;;15.79
19568;BMP280;9930;49.240;8.548;2023-03-31T06:10:28;99158.84;;;15.76
19568;BMP280;9930;49.240;8.548;2023-03-31T06:12:58;99153.69;;;15.79
19568;BMP280;9930;49.240;8.548;2023-03-31T06:15:24;99162.28;;;15.75
19568;BMP280;9930;49.240;8.548;2023-03-31T06:17:49;99171.69;;;15.77
19568;BMP280;9930;49.240;8.548;2023-03-31T06:20:15;99158.88;;;15.68
19568;BMP280;9930;49.240;8.548;2023-03-31T06:22:41;99153.72;;;15.70
19568;BMP280;9930;49.240;8.548;2023-03-31T06:25:08;99142.59;;;15.68
19568;BMP280;9930;49.240;8.548;2023-03-31T06:27:33;99134.84;;;15.78
19568;BMP280;9930;49.240;8.548;2023-03-31T06:30:04;99134.88;;;15.74
19568;BMP280;9930;49.240;8.548;2023-03-31T06:32:30;99122.88;;;15.77
19568;BMP280;9930;49.240;8.548;2023-03-31T06:34:59;99078.31;;;15.78
19568;BMP280;9930;49.240;8.548;2023-03-31T06:37:28;99038.88;;;15.78
19568;BMP280;9930;49.240;8.548;2023-03-31T06:39:53;99090.31;;;15.72
19568;BMP280;9930;49.240;8.548;2023-03-31T06:42:19;99118.59;;;15.76
19568;BMP280;9930;49.240;8.548;2023-03-31T06:44:45;99118.56;;;15.78
19568;BMP280;9930;49.240;8.548;2023-03-31T06:47:10;99098.03;;;15.70
19568;BMP280;9930;49.240;8.548;2023-03-31T06:49:41;99104.03;;;15.74
19568;BMP280;9930;49.240;8.548;2023-03-31T06:52:09;99095.44;;;15.76
19568;BMP280;9930;49.240;8.548;2023-03-31T06:54:40;99099.72;;;15.82
19568;BMP280;9930;49.240;8.548;2023-03-31T06:57:06;99105.69;;;15.85
19568;BMP280;9930;49.240;8.548;2023-03-31T06:59:32;99109.09;;;15.87
19568;BMP280;9930;49.240;8.548;2023-03-31T07:01:59;99115.94;;;15.90
19568;BMP280;9930;49.240;8.548;2023-03-31T07:04:25;99121.09;;;15.90
19568;BMP280;9930;49.240;8.548;2023-03-31T07:06:52;99110.78;;;15.95
19568;BMP280;9930;49.240;8.548;2023-03-31T07:09:18;99091.09;;;15.89
19568;BMP280;9930;49.240;8.548;2023-03-31T07:11:48;99102.25;;;15.90
19568;BMP280;9930;49.240;8.548;2023-03-31T07:14:13;99107.34;;;15.99
19568;BMP280;9930;49.240;8.548;2023-03-31T07:16:41;99111.63;;;16.01
19568;BMP280;9930;49.240;8.548;2023-03-31T07:19:10;99094.50;;;15.96
19568;BMP280;9930;49.240;8.548;2023-03-31T07:21:36;99094.47;;;16.00
19568;BMP280;9930;49.240;8.548;2023-03-31T07:24:04;99103.00;;;16.10
19568;BMP280;9930;49.240;8.548;2023-03-31T07:26:35;99110.69;;;16.14
19568;BMP280;9930;49.240;8.548;2023-03-31T07:29:00;99113.22;;;16.19
19568;BMP280;9930;49.240;8.548;2023-03-31T07:31:26;99122.63;;;16.26
19568;BMP280;9930;49.240;8.548;2023-03-31T07:33:54;99108.03;;;16.25
19568;BMP280;9930;49.240;8.548;2023-03-31T07:36:23;99109.72;;;16.32
19568;BMP280;9930;49.240;8.548;2023-03-31T07:38:51;99125.91;;;16.49
19568;BMP280;9930;49.240;8.548;2023-03-31T07:41:21;99125.88;;;16.54
19568;BMP280;9930;49.240;8.548;2023-03-31T07:43:52;99118.16;;;16.52
19568;BMP280;9930;49.240;8.548;2023-03-31T07:46:25;99136.13;;;16.60
19568;BMP280;9930;49.240;8.548;2023-03-31T07:48:53;99124.16;;;16.50
19568;BMP280;9930;49.240;8.548;2023-03-31T07:51:23;99133.56;;;16.57
19568;BMP280;9930;49.240;8.548;2023-03-31T07:53:52;99129.28;;;16.58
19568;BMP280;9930;49.240;8.548;2023-03-31T07:56:21;99124.06;;;16.64
19568;BMP280;9930;49.240;8.548;2023-03-31T07:58:52;99111.19;;;16.64
19568;BMP280;9930;49.240;8.548;2023-03-31T08:01:21;99106.84;;;16.75
19568;BMP280;9930;49.240;8.548;2023-03-31T08:03:51;99126.47;;;16.91
19568;BMP280;9930;49.240;8.548;2023-03-31T08:06:24;99114.38;;;16.99
19568;BMP280;9930;49.240;8.548;2023-03-31T08:08:51;99111.78;;;16.99
19568;BMP280;9930;49.240;8.548;2023-03-31T08:11:19;99119.38;;;17.13
19568;BMP280;9930;49.240;8.548;2023-03-31T08:13:49;99102.22;;;17.13
19568;BMP280;9930;49.240;8.548;2023-03-31T08:16:17;99114.09;;;17.27
19568;BMP280;9930;49.240;8.548;2023-03-31T08:18:43;99096.84;;;17.33
19568;BMP280;9930;49.240;8.548;2023-03-31T08:21:09;99103.69;;;17.36
19568;BMP280;9930;49.240;8.548;2023-03-31T08:23:37;99105.34;;;17.41
19568;BMP280;9930;49.240;8.548;2023-03-31T08:26:12;99083.84;;;17.45
19568;BMP280;9930;49.240;8.548;2023-03-31T08:28:38;99098.28;;;17.59
19568;BMP280;9930;49.240;8.548;2023-03-31T08:31:10;99090.47;;;17.68
19568;BMP280;9930;49.240;8.548;2023-03-31T08:33:38;99096.38;;;17.77
19568;BMP280;9930;49.240;8.548;2023-03-31T08:36:06;99062.84;;;17.79
19568;BMP280;9930;49.240;8.548;2023-03-31T08:38:38;99087.56;;;17.94
19568;BMP280;9930;49.240;8.548;2023-03-31T08:43:48;99065.94;;;18.04
19568;BMP280;9930;49.240;8.548;2023-03-31T08:46:18;99058.06;;;18.11
19568;BMP280;9930;49.240;8.548;2023-03-31T08:48:53;99063.13;;;18.19
19568;BMP280;9930;49.240;8.548;2023-03-31T08:51:39;99075.91;;;18.27
19568;BMP280;9930;49.240;8.548;2023-03-31T08:54:12;99068.13;;;18.30
19568;BMP280;9930;49.240;8.548;2023-03-31T08:56:46;99076.50;;;18.44
19568;BMP280;9930;49.240;8.548;2023-03-31T08:59:33;99066.13;;;18.47
19568;BMP280;9930;49.240;8.548;2023-03-31T09:02:35;99073.66;;;18.62
19568;BMP280;9930;49.240;8.548;2023-03-31T09:18:46;99044.88;;;18.85
19568;BMP280;9930;49.240;8.548;2023-03-31T09:21:31;99013.88;;;18.85
19568;BMP280;9930;49.240;8.548;2023-03-31T09:27:07;99028.94;;;19.08
19568;BMP280;9930;49.240;8.548;2023-03-31T09:30:00;99024.31;;;19.25
19568;BMP280;9930;49.240;8.548;2023-03-31T09:32:31;99026.72;;;19.34
19568;BMP280;9930;49.240;8.548;2023-03-31T09:37:40;99023.72;;;19.56
19568;BMP280;9930;49.240;8.548;2023-03-31T09:40:15;99019.19;;;19.65
19568;BMP280;9930;49.240;8.548;2023-03-31T09:42:41;99001.19;;;19.61
19568;BMP280;9930;49.240;8.548;2023-03-31T09:45:17;99020.00;;;19.67
19568;BMP280;9930;49.240;8.548;2023-03-31T09:47:50;98988.25;;;19.61
19568;BMP280;9930;49.240;8.548;2023-03-31T09:50:17;99003.72;;;19.64
19568;BMP280;9930;49.240;8.548;2023-03-31T09:52:50;98996.94;;;19.58
19568;BMP280;9930;49.240;8.548;2023-03-31T09:55:46;98996.91;;;19.60
19568;BMP280;9930;49.240;8.548;2023-03-31T09:58:16;99009.75;;;19.63
19568;BMP280;9930;49.240;8.548;2023-03-31T10:01:17;98991.84;;;19.55
19568;BMP280;9930;49.240;8.548;2023-03-31T10:03:55;98989.22;;;19.57
19568;BMP280;9930;49.240;8.548;2023-03-31T10:06:22;98970.31;;;19.53
19568;BMP280;9930;49.240;8.548;2023-03-31T10:09:01;98973.66;;;19.58
19568;BMP280;9930;49.240;8.548;2023-03-31T10:11:30;98965.00;;;19.61
19568;BMP280;9930;49.240;8.548;2023-03-31T10:14:12;98969.94;;;19.70
19568;BMP280;9930;49.240;8.548;2023-03-31T10:16:54;98992.94;;;19.84
19568;BMP280;9930;49.240;8.548;2023-03-31T10:19:28;98973.19;;;19.80
19568;BMP280;9930;49.240;8.548;2023-03-31T10:24:50;98967.63;;;19.96
19568;BMP280;9930;49.240;8.548;2023-03-31T10:27:29;98972.56;;;20.05
19568;BMP280;9930;49.240;8.548;2023-03-31T10:29:58;98964.03;;;20.02
19568;BMP280;9930;49.240;8.548;2023-03-31T10:32:31;98960.53;;;20.04
19568;BMP280;9930;49.240;8.548;2023-03-31T10:35:05;98951.47;;;19.87
19568;BMP280;9930;49.240;8.548;2023-03-31T10:37:34;98968.69;;;19.88
19568;BMP280;9930;49.240;8.548;2023-03-31T10:40:21;99001.84;;;19.70
19568;BMP280;9930;49.240;8.548;2023-03-31T10:43:17;99019.50;;;19.52
19568;BMP280;9930;49.240;8.548;2023-03-31T10:48:25;99022.94;;;19.06
19568;BMP280;9930;49.240;8.548;2023-03-31T10:50:51;99032.84;;;18.83
19568;BMP280;9930;49.240;8.548;2023-03-31T10:53:22;99034.97;;;18.61
19568;BMP280;9930;49.240;8.548;2023-03-31T11:07:48;98989.91;;;17.69
19568;BMP280;9930;49.240;8.548;2023-03-31T11:10:49;98999.31;;;17.72
19568;BMP280;9930;49.240;8.548;2023-03-31T11:22:43;98991.13;;;18.02
19568;BMP280;9930;49.240;8.548;2023-03-31T11:25:33;98984.97;;;18.12
19568;BMP280;9930;49.240;8.548;2023-03-31T11:28:29;98973.72;;;18.17
19568;BMP280;9930;49.240;8.548;2023-03-31T11:34:32;98994.72;;;18.48
19568;BMP280;9930;49.240;8.548;2023-03-31T11:37:23;98975.72;;;18.52
19568;BMP280;9930;49.240;8.548;2023-03-31T11:45:56;98998.63;;;18.71
19568;BMP280;9930;49.240;8.548;2023-03-31T11:48:50;99016.44;;;18.85
19568;BMP280;9930;49.240;8.548;2023-03-31T11:51:26;98989.00;;;18.80
19568;BMP280;9930;49.240;8.548;2023-03-31T11:53:58;98996.59;;;18.89
19568;BMP280;9930;49.240;8.548;2023-03-31T11:56:35;98980.13;;;18.94
19568;BMP280;9930;49.240;8.548;2023-03-31T11:59:05;98999.72;;;19.04
19568;BMP280;9930;49.240;8.548;2023-03-31T12:02:01;98998.69;;;19.13
19568;BMP280;9930;49.240;8.548;2023-03-31T12:04:38;99023.63;;;19.16
19568;BMP280;9930;49.240;8.548;2023-03-31T12:07:39;98994.44;;;19.11
19568;BMP280;9930;49.240;8.548;2023-03-31T12:10:22;98980.81;;;19.02
19568;BMP280;9930;49.240;8.548;2023-03-31T12:13:12;98983.34;;;19.05
19568;BMP280;9930;49.240;8.548;2023-03-31T12:15:53;98980.75;;;19.05
19568;BMP280;9930;49.240;8.548;2023-03-31T12:18:33;98978.22;;;19.04
19568;BMP280;9930;49.240;8.548;2023-03-31T12:21:06;98982.50;;;19.05
19568;BMP280;9930;49.240;8.548;2023-03-31T12:23:42;98971.34;;;19.03
19568;BMP280;9930;49.240;8.548;2023-03-31T12:26:38;98941.38;;;18.94
19568;BMP280;9930;49.240;8.548;2023-03-31T12:29:33;98955.94;;;18.98
19568;BMP280;9930;49.240;8.548;2023-03-31T12:32:20;98965.44;;;18.96
19568;BMP280;9930;49.240;8.548;2023-03-31T12:41:16;98965.03;;;18.73
19568;BMP280;9930;49.240;8.548;2023-03-31T12:44:23;98966.81;;;18.69
19568;BMP280;9930;49.240;8.548;2023-03-31T12:47:23;98950.53;;;18.66
19568;BMP280;9930;49.240;8.548;2023-03-31T12:52:59;98949.69;;;18.65
19568;BMP280;9930;49.240;8.548;2023-03-31T12:55:39;98951.41;;;18.65
19568;BMP280;9930;49.240;8.548;2023-03-31T13:01:05;98960.91;;;18.63
19568;BMP280;9930;49.240;8.548;2023-03-31T13:09:04;98966.41;;;18.41
19568;BMP280;9930;49.240;8.548;2023-03-31T13:14:23;98938.31;;;18.25
19568;BMP280;9930;49.240;8.548;2023-03-31T13:16:52;98932.34;;;18.23
19568;BMP280;9930;49.240;8.548;2023-03-31T13:19:40;98942.53;;;18.30
19568;BMP280;9930;49.240;8.548;2023-03-31T13:22:32;98936.53;;;18.28
19568;BMP280;9930;49.240;8.548;2023-03-31T13:28:42;98946.78;;;18.33
19568;BMP280;9930;49.240;8.548;2023-03-31T13:31:13;98946.84;;;18.30
19568;BMP280;9930;49.240;8.548;2023-03-31T13:34:01;98937.38;;;18.30
19568;BMP280;9930;49.240;8.548;2023-03-31T13:48:16;98912.03;;;18.52
19568;BMP280;9930;49.240;8.548;2023-03-31T14:11:21;98859.47;;;18.99
19568;BMP280;9930;49.240;8.548;2023-03-31T14:14:06;98878.31;;;19.03
19568;BMP280;9930;49.240;8.548;2023-03-31T14:16:44;98874.72;;;19.10
19568;BMP280;9930;49.240;8.548;2023-03-31T14:31:54;98890.78;;;18.84
19568;BMP280;9930;49.240;8.548;2023-03-31T14:37:48;98911.91;;;18.58
19568;BMP280;9930;49.240;8.548;2023-03-31T14:40:17;98924.94;;;18.51
19568;BMP280;9930;49.240;8.548;2023-03-31T14:42:44;98901.94;;;18.38
19568;BMP280;9930;49.240;8.548;2023-03-31T14:45:25;98879.75;;;18.30
19568;BMP280;9930;49.240;8.548;2023-03-31T14:48:09;98871.16;;;18.28
19568;BMP280;9930;49.240;8.548;2023-03-31T14:50:42;98854.91;;;18.23
19568;BMP280;9930;49.240;8.548;2023-03-31T14:53:16;98862.50;;;18.32
19568;BMP280;9930;49.240;8.548;2023-03-31T14:55:45;98852.16;;;18.33
19568;BMP280;9930;49.240;8.548;2023-03-31T14:58:24;98850.34;;;18.37
19568;BMP280;9930;49.240;8.548;2023-03-31T15:00:54;98857.22;;;18.38
19568;BMP280;9930;49.240;8.548;2023-03-31T15:03:20;98853.84;;;18.34
19568;BMP280;9930;49.240;8.548;2023-03-31T15:05:46;98869.13;;;18.45
19568;BMP280;9930;49.240;8.548;2023-03-31T15:08:19;98868.19;;;18.49
19568;BMP280;9930;49.240;8.548;2023-03-31T15:10:57;98873.31;;;18.51
19568;BMP280;9930;49.240;8.548;2023-03-31T15:13:34;98856.25;;;18.43
19568;BMP280;9930;49.240;8.548;2023-03-31T15:16:27;98876.78;;;18.50
19568;BMP280;9930;49.240;8.548;2023-03-31T15:19:06;98869.91;;;18.49
19568;BMP280;9930;49.240;8.548;2023-03-31T15:21:36;98875.19;;;18.42
19568;BMP280;9930;49.240;8.548;2023-03-31T15:24:05;98885.44;;;18.47
19568;BMP280;9930;49.240;8.548;2023-03-31T15:26:44;98881.16;;;18.46
19568;BMP280;9930;49.240;8.548;2023-03-31T15:29:46;98897.50;;;18.47
19568;BMP280;9930;49.240;8.548;2023-03-31T15:34:55;98887.41;;;18.33
19568;BMP280;9930;49.240;8.548;2023-03-31T15:37:39;98888.38;;;18.27
19568;BMP280;9930;49.240;8.548;2023-03-31T15:40:34;98893.63;;;18.23
19568;BMP280;9930;49.240;8.548;2023-03-31T15:48:32;98900.78;;;18.07
19568;BMP280;9930;49.240;8.548;2023-03-31T15:51:15;98903.44;;;18.02
19568;BMP280;9930;49.240;8.548;2023-03-31T15:53:47;98885.53;;;17.93
19568;BMP280;9930;49.240;8.548;2023-03-31T15:56:44;98911.22;;;17.99
19568;BMP280;9930;49.240;8.548;2023-03-31T15:59:23;98890.59;;;17.99
19568;BMP280;9930;49.240;8.548;2023-03-31T16:01:50;98894.13;;;17.94
19568;BMP280;9930;49.240;8.548;2023-03-31T16:04:19;98887.25;;;17.94
19568;BMP280;9930;49.240;8.548;2023-03-31T16:06:55;98903.50;;;17.99
19568;BMP280;9930;49.240;8.548;2023-03-31T16:12:14;98907.13;;;17.88
19568;BMP280;9930;49.240;8.548;2023-03-31T16:15:09;98902.81;;;17.88
19568;BMP280;9930;49.240;8.548;2023-03-31T16:18:04;98902.03;;;17.83
19568;BMP280;9930;49.240;8.548;2023-03-31T16:20:49;98898.78;;;17.72
19568;BMP280;9930;49.240;8.548;2023-03-31T16:23:26;98897.84;;;17.76
19568;BMP280;9930;49.240;8.548;2023-03-31T16:25:54;98881.66;;;17.66
19568;BMP280;9930;49.240;8.548;2023-03-31T16:28:27;98887.66;;;17.68
19568;BMP280;9930;49.240;8.548;2023-03-31T16:30:54;98890.22;;;17.68
19568;BMP280;9930;49.240;8.548;2023-03-31T16:33:22;98898.75;;;17.73
19568;BMP280;9930;49.240;8.548;2023-03-31T16:35:51;98900.53;;;17.68
19568;BMP280;9930;49.240;8.548;2023-03-31T16:38:26;98903.13;;;17.68
19568;BMP280;9930;49.240;8.548;2023-03-31T16:40:56;98886.16;;;17.52
19568;BMP280;9930;49.240;8.548;2023-03-31T16:43:29;98922.97;;;17.60
19568;BMP280;9930;49.240;8.548;2023-03-31T16:46:02;98931.66;;;17.55
19568;BMP280;9930;49.240;8.548;2023-03-31T16:48:31;98930.84;;;17.51
19568;BMP280;9930;49.240;8.548;2023-03-31T16:51:01;98916.41;;;17.38
19568;BMP280;9930;49.240;8.548;2023-03-31T16:53:34;98898.47;;;17.32
19568;BMP280;9930;49.240;8.548;2023-03-31T16:56:02;98916.47;;;17.35
19568;BMP280;9930;49.240;8.548;2023-03-31T16:58:32;98931.16;;;17.28
19568;BMP280;9930;49.240;8.548;2023-03-31T17:01:04;98918.44;;;17.14
19568;BMP280;9930;49.240;8.548;2023-03-31T17:03:36;98920.25;;;17.08
19568;BMP280;9930;49.240;8.548;2023-03-31T17:06:09;98931.38;;;17.10
19568;BMP280;9930;49.240;8.548;2023-03-31T17:08:38;98925.53;;;16.97
19568;BMP280;9930;49.240;8.548;2023-03-31T17:11:08;98939.25;;;16.99
19568;BMP280;9930;49.240;8.548;2023-03-31T17:13:40;98937.59;;;16.94
19568;BMP280;9930;49.240;8.548;2023-03-31T17:16:07;98923.91;;;16.90
19568;BMP280;9930;49.240;8.548;2023-03-31T17:18:34;98924.00;;;16.81
19568;BMP280;9930;49.240;8.548;2023-03-31T17:21:12;98922.38;;;16.74
19568;BMP280;9930;49.240;8.548;2023-03-31T17:23:39;98932.75;;;16.68
19568;BMP280;9930;49.240;8.548;2023-03-31T17:26:07;98940.47;;;16.68
19568;BMP280;9930;49.240;8.548;2023-03-31T17:28:34;98931.09;;;16.56
19568;BMP280;9930;49.240;8.548;2023-03-31T17:31:01;98934.59;;;16.52
19568;BMP280;9930;49.240;8.548;2023-03-31T17:33:29;98934.63;;;16.47
19568;BMP280;9930;49.240;8.548;2023-03-31T17:35:59;98931.22;;;16.44
19568;BMP280;9930;49.240;8.548;2023-03-31T17:38:25;98931.25;;;16.41
19568;BMP280;9930;49.240;8.548;2023-03-31T17:40:54;98948.41;;;16.40
19568;BMP280;9930;49.240;8.548;2023-03-31T17:43:20;98955.28;;;16.40
19568;BMP280;9930;49.240;8.548;2023-03-31T17:45:46;98960.47;;;16.37
19568;BMP280;9930;49.240;8.548;2023-03-31T17:48:17;98963.06;;;16.34
19568;BMP280;9930;49.240;8.548;2023-03-31T17:50:42;98953.66;;;16.30
19568;BMP280;9930;49.240;8.548;2023-03-31T17:53:08;98962.22;;;16.32
19568;BMP280;9930;49.240;8.548;2023-03-31T17:55:37;98975.94;;;16.32
19568;BMP280;9930;49.240;8.548;2023-03-31T17:58:04;98975.94;;;16.32